Flight Track Log - Related Links

Times and Time Zones

All times are in EDT time to prevent confusion due to time zone crossing. See the AWE1796 flight status page for this flight to view local times or setup timezone preferences in your user account.

Time Position Orientation Groundspeed Altitude Reporting Facility
EDT Latitude Longitude Course Direction KTS MPH feet Rate Location/Type
Tue 10:22:48 PM 35.2306 -80.9392 72° East 159 183 2,000  Level Atlanta Center
Tue 10:23:30 PM 35.2658 -80.9353 North 183 211 4,000 2,317 Climbing Atlanta Center
Tue 10:24:29 PM 35.3067 -80.8956 38° Northeast 222 255 5,900 2,571 Climbing Atlanta Center
Tue 10:25:00 PM 35.1711 -80.5860 29° Northeast  Level FlightAware Approximate
Tue 10:25:29 PM 35.3231 -80.8008 78° East 240 276 9,100  Level Atlanta Center
Tue 10:26:00 PM 35.2860 -80.5053 30° Northeast  Level FlightAware Approximate
Tue 10:26:29 PM 35.3389 -80.6933 80° East 275 316 11,600  Level Atlanta Center
Tue 10:27:00 PM 35.3539 -80.3888 72° East  Level FlightAware Approximate
Tue 10:27:29 PM 35.3622 -80.5600 78° East 344 396 13,800  Level Atlanta Center
Tue 10:28:00 PM 35.3946 -80.2341 72° East  Level FlightAware Approximate
Tue 10:28:29 PM 35.3856 -80.4239 78° East 379 436 16,800  Level Atlanta Center
Tue 10:30:56 PM 35.4506 -80.0694 77° East 460 529 22,000 2,319 Climbing Washington Center
Tue 10:31:56 PM 35.4964 -79.8958 72° East 478 550 24,800 2,200 Climbing Washington Center
Tue 10:32:56 PM 35.5400 -79.7272 72° East 495 570 26,400 1,714 Climbing Washington Center
Tue 10:33:55 PM 35.5878 -79.5483 72° East 533 613 28,200 2,050 Climbing Washington Center
Tue 10:34:56 PM 35.6372 -79.3769 70° East 541 623 30,500 1,377 Climbing Washington Center
Tue 10:35:57 PM 35.7175 -79.2069 60° Northeast 541 623 31,000 250 Climbing Washington Center
Tue 10:36:56 PM 35.8344 -79.0661 44° Northeast 561 646 31,000  Level Washington Center
Tue 10:37:57 PM 35.9731 -78.9619 31° Northeast 565 650 31,000  Level Washington Center
Tue 10:38:55 PM 36.1117 -78.8522 33° Northeast 570 656 31,000  Level Washington Center
Tue 10:39:56 PM 36.2608 -78.7347 32° Northeast 576 663 31,000  Level Washington Center
Tue 10:40:56 PM 36.4014 -78.6267 32° Northeast 586 674 31,000  Level Washington Center
Tue 10:41:57 PM 36.5397 -78.5158 33° Northeast 586 674 31,000  Level Washington Center
Tue 10:42:58 PM 36.6781 -78.4069 32° Northeast 586 674 31,000  Level Washington Center
Tue 10:43:55 PM 36.7992 -78.3078 33° Northeast 580 667 31,000  Level Washington Center
Tue 10:44:55 PM 36.9542 -78.1833 33° Northeast 580 667 31,000  Level Washington Center
Tue 10:45:56 PM 37.0922 -78.0733 32° Northeast 585 673 31,000  Level Washington Center
Tue 10:46:56 PM 37.2278 -77.9656 32° Northeast 579 666 31,000  Level Washington Center
Tue 10:47:55 PM 37.3656 -77.8547 33° Northeast 579 666 31,000 -15 Level Washington Center
Tue 10:53:49 PM 38.1795 -77.1659 33° Northeast 592 681 30,900 -485 Descending FlightAware ADS-B
Tue 10:54:56 PM 38.3201 -77.0487 33° Northeast 601 692 27,600 -3,306 Descending FlightAware ADS-B (KDAA)
Tue 10:55:27 PM 38.4055 -76.9769 33° Northeast 610 702 25,500 -2,852 Descending FlightAware ADS-B (KDAA)
Tue 10:55:57 PM 38.4753 -76.9182 33° Northeast 587 676 24,700 -1,543 Descending FlightAware ADS-B (KDAA)
Tue 10:56:02 PM 38.4868 -76.9084 34° Northeast 578 665 24,600 -1,400 Descending FlightAware ADS-B
Tue 10:56:27 PM 38.5393 -76.8641 33° Northeast 555 639 24,000 -610 Descending FlightAware ADS-B (KDAA)
Tue 10:57:01 PM 38.6139 -76.8013 33° Northeast 549 632 24,000  Level FlightAware ADS-B
Tue 10:57:06 PM 38.6194 -76.7967 33° Northeast 549 632 24,000  Level FlightAware ADS-B (KDAA)
Tue 10:57:26 PM 38.6623 -76.7526 45° Northeast 552 635 24,000  Level FlightAware ADS-B (KDAA)
Tue 10:57:47 PM 38.6951 -76.6979 58° Northeast 547 629 24,000  Level FlightAware ADS-B (KDAA)
Tue 10:57:54 PM 38.7046 -76.6751 64° Northeast 544 626 24,000  Level FlightAware ADS-B
Tue 10:57:57 PM 38.7076 -76.6671 70° East 539 620 24,000  Level FlightAware ADS-B
Tue 10:58:07 PM 38.7148 -76.6432 71° East 538 619 24,000  Level FlightAware ADS-B (KDAA)
Tue 10:58:43 PM 38.7282 -76.5836 74° East 532 612 24,000 -1,784 Level FlightAware ADS-B (KDAA)
Tue 11:05:04 PM 39.0715 -75.6640 13° North 364 419 11,600 -1,952 Descending FlightAware ADS-B (KPHL)
Tue 11:05:44 PM 39.1141 -75.6565 North 349 402 10,300 -672 Descending FlightAware ADS-B (KPHL)
Tue 11:07:00 PM 39.2457 -75.6412 North 297 342 10,300  Level FlightAware ADS-B (KPHL)
Tue 11:07:18 PM 39.2260 -75.6436 16° North 302 348 10,300  Level FlightAware ADS-B (EGBB / BHX)
Tue 11:07:32 PM 39.2819 -75.6325 32° Northeast 307 353 10,300  Level FlightAware ADS-B (KPHL)
Tue 11:08:12 PM 39.3424 -75.5835 34° Northeast 310 357 10,300  Level FlightAware ADS-B (EGBB / BHX)
Tue 11:08:45 PM 39.3812 -75.5494 36° Northeast 311 358 10,300  Level FlightAware ADS-B (EGBB / BHX)
Tue 11:09:18 PM 39.4191 -75.5116 39° Northeast 310 357 10,300  Level FlightAware ADS-B (KPHL)
Tue 11:09:30 PM 39.4322 -75.4965 43° Northeast 309 356 10,300  Level FlightAware ADS-B (KPHL)
Tue 11:10:02 PM 39.4658 -75.4572 42° Northeast 311 358 10,300 -429 Level FlightAware ADS-B (KPHL)
Tue 11:10:26 PM 39.4914 -75.4275 42° Northeast 307 353 9,900 -933 Descending FlightAware ADS-B (KPHL)
Tue 11:10:47 PM 39.5142 -75.4005 42° Northeast 304 350 9,600 -1,116 Descending FlightAware ADS-B (KPHL)
Tue 11:11:09 PM 39.5362 -75.3748 42° Northeast 301 346 9,100 -1,171 Descending FlightAware ADS-B (EGBB / BHX)
Tue 11:11:28 PM 39.5563 -75.3521 41° Northeast 297 342 8,800 -1,050 Descending FlightAware ADS-B (EGBB / BHX)
Tue 11:11:49 PM 39.5728 -75.3333 42° Northeast 289 333 8,400 -1,171 Descending FlightAware ADS-B (EGBB / BHX)
Tue 11:12:09 PM 39.5961 -75.3063 42° Northeast 283 326 8,000 -1,297 Descending FlightAware ADS-B (EGBB / BHX)
Tue 11:12:26 PM 39.6136 -75.2862 42° Northeast 279 321 7,600 -1,263 Descending FlightAware ADS-B (EGBB / BHX)
Tue 11:12:47 PM 39.6329 -75.2641 42° Northeast 272 313 7,200 -1,105 Descending FlightAware ADS-B (EGBB / BHX)
Tue 11:13:04 PM 39.6484 -75.2458 42° Northeast 265 305 6,900 -1,680 Descending FlightAware ADS-B (EGBB / BHX)
Tue 11:13:12 PM 39.6572 -75.2354 42° Northeast 272 313 6,500 -1,200 Descending FlightAware ADS-B (KPHL)
Tue 11:13:34 PM 39.6617 -75.2301 43° Northeast 258 297 6,300 -625 Descending FlightAware ADS-B (EGBB / BHX)
Tue 11:14:00 PM 39.6790 -75.2089 44° Northeast 257 296 6,000 -545 Descending FlightAware ADS-B (KPHL)
Tue 11:14:18 PM 39.7121 -75.1671 45° Northeast 239 275 5,900 -610 Descending FlightAware ADS-B (KPHL)
Tue 11:14:59 PM 39.7359 -75.1359 46° Northeast 216 249 5,400 -822 Descending FlightAware ADS-B (KPHL)
Tue 11:15:31 PM 39.7487 -75.1183 47° Northeast 187 215 4,900 -1,091 Descending FlightAware ADS-B (KPHL)
Tue 11:15:43 PM 39.7679 -75.0920 48° Northeast 164 189 4,600 -600 Descending FlightAware ADS-B (KPHL)
Tue 11:16:11 PM 39.7702 -75.0888 48° Northeast 162 186 4,500 -1,024 Descending FlightAware ADS-B (KPHL)
Tue 11:16:24 PM 39.7867 -75.0649 51° Northeast 164 189 3,900 -579 Descending FlightAware ADS-B (KPHL)
Tue 11:18:05 PM 39.8491 -75.0193 357° North 149 171 3,400 -246 Descending FlightAware ADS-B (KPHL)
Tue 11:18:26 PM 39.8611 -75.0225 344° North 146 168 3,400 -128 Level FlightAware ADS-B (KPHL)
Tue 11:18:52 PM 39.8794 -75.0296 342° North 142 163 3,300 -476 Descending FlightAware ADS-B (KPHL)
Tue 11:19:29 PM 39.9006 -75.0491 277° West 162 186 2,900 -391 Descending FlightAware ADS-B (KPHL)
Tue 11:19:38 PM 39.9005 -75.0576 255° West 158 182 3,000 -533 Climbing FlightAware ADS-B (KPHL)
Tue 11:20:14 PM 39.8939 -75.0897 257° West 149 171 2,500 -887 Descending FlightAware ADS-B (KPHL)
Tue 11:21:33 PM 39.8833 -75.1667 257° West 140 161 1,300 -828 Descending Philadelphia TRACON
Tue 11:22:39 PM 39.8667 -75.2167 247° West 136 157 500 -727 Descending Philadelphia TRACON

Login

Don't have an account? Register now (free) for customized features, flight alerts, and more!